Time;durP1;ratioP1;P1;durP2;ratioP2;P2;SDS_P1;SDS_P2;PMS_P1;PMS_P2;Temp;Humidity;BMP_temperature;BMP_pressure;BME280_temperature;BME280_humidity;BME280_pressure;Samples;Min_cycle;Max_cycle;Signal;HPM_P1;HPM_P2
2024/03/23 00:01:53;;;;;;;5.10;0.80;;;;;;;8.52;100.00;100368.72;5073267;28;20437;-71
2024/03/23 00:04:23;;;;;;;2.10;0.70;;;;;;;8.45;100.00;100371.78;5073444;28;20512;-71
2024/03/23 00:06:53;;;;;;;2.13;0.43;;;;;;;8.41;100.00;100364.56;5073615;28;20535;-71
2024/03/23 00:09:24;;;;;;;2.53;0.60;;;;;;;8.41;100.00;100364.56;5073697;28;20523;-72
2024/03/23 00:11:54;;;;;;;1.90;0.40;;;;;;;8.35;100.00;100361.09;5073451;28;20436;-71
2024/03/23 00:14:23;;;;;;;3.17;0.80;;;;;;;8.32;100.00;100354.41;5073033;28;20965;-72
2024/03/23 00:16:54;;;;;;;2.50;0.60;;;;;;;8.25;100.00;100342.38;5073397;28;20811;-71
2024/03/23 00:19:23;;;;;;;2.50;0.90;;;;;;;8.26;100.00;100333.16;5073249;28;20528;-71
2024/03/23 00:21:53;;;;;;;1.90;0.40;;;;;;;8.28;100.00;100331.00;5072916;28;20552;-71
2024/03/23 00:24:23;;;;;;;2.00;0.43;;;;;;;8.31;100.00;100331.19;5073465;28;20508;-72
2024/03/23 00:26:53;;;;;;;2.57;0.50;;;;;;;8.34;100.00;100330.63;5072799;28;20516;-72
2024/03/23 00:29:22;;;;;;;1.90;0.40;;;;;;;8.39;100.00;100312.78;5072995;28;20921;-72
2024/03/23 00:31:53;;;;;;;2.63;0.70;;;;;;;8.36;100.00;100319.53;5072974;28;20449;-71
2024/03/23 00:34:22;;;;;;;1.90;0.40;;;;;;;8.37;100.00;100309.56;5073046;28;20921;-71
2024/03/23 00:36:53;;;;;;;2.40;0.70;;;;;;;8.43;100.00;100301.09;5072763;28;20869;-71
2024/03/23 00:39:22;;;;;;;2.30;0.50;;;;;;;8.46;100.00;100294.34;5073484;28;20487;-72
2024/03/23 00:41:53;;;;;;;2.20;0.40;;;;;;;8.45;100.00;100295.41;5076460;28;20813;-72
2024/03/23 00:44:22;;;;;;;1.80;0.30;;;;;;;8.47;100.00;100301.31;5076966;28;20921;-72
2024/03/23 00:46:53;;;;;;;1.90;0.40;;;;;;;8.45;100.00;100300.81;5076938;28;20445;-72
2024/03/23 00:49:22;;;;;;;2.20;0.50;;;;;;;8.45;100.00;100300.81;5076711;28;20517;-72
2024/03/23 00:51:53;;;;;;;2.47;0.60;;;;;;;8.46;100.00;100295.13;5076568;28;20456;-72
2024/03/23 00:54:20;;;;;;;2.10;0.67;;;;;;;8.49;100.00;100294.53;5076447;28;20952;-71
2024/03/23 00:56:46;;;;;;;2.40;0.57;;;;;;;8.52;100.00;100302.03;5076766;28;20629;-71
2024/03/23 00:59:13;;;;;;;2.30;0.80;;;;;;;8.52;100.00;100303.94;5076761;28;20520;-72
2024/03/23 01:01:40;;;;;;;4.07;0.93;;;;;;;8.46;100.00;100297.84;5077189;28;20475;-72
2024/03/23 01:04:05;;;;;;;2.33;0.80;;;;;;;8.45;100.00;100290.00;5076469;28;21039;-72
2024/03/23 01:06:32;;;;;;;2.73;1.00;;;;;;;8.40;100.00;100287.38;5076674;28;20536;-72
2024/03/23 01:08:58;;;;;;;2.00;0.50;;;;;;;8.39;100.00;100281.19;5076498;28;20726;-72
2024/03/23 01:11:26;;;;;;;2.27;0.50;;;;;;;8.41;100.00;100289.00;5076042;28;20964;-72
2024/03/23 01:13:54;;;;;;;2.10;0.60;;;;;;;8.42;100.00;100279.81;5076086;28;20223;-72
2024/03/23 01:16:21;;;;;;;2.50;0.60;;;;;;;8.38;100.00;100276.91;5076432;28;20452;-72
2024/03/23 01:18:48;;;;;;;3.40;1.20;;;;;;;8.35;100.00;100274.75;5075799;28;20947;-72
2024/03/23 01:21:13;;;;;;;3.67;1.00;;;;;;;8.34;100.00;100265.06;5075797;28;20441;-72
2024/03/23 01:23:40;;;;;;;2.20;0.57;;;;;;;8.36;100.00;100265.56;5076052;28;20469;-72
2024/03/23 01:26:05;;;;;;;2.00;0.50;;;;;;;8.37;100.00;100263.69;5075440;28;20685;-70
2024/03/23 01:28:33;;;;;;;1.90;0.40;;;;;;;8.36;100.00;100252.06;5076226;28;20541;-70
2024/03/23 01:30:59;;;;;;;2.30;0.57;;;;;;;8.38;100.00;100249.13;5075530;28;20206;-70
2024/03/23 01:33:26;;;;;;;1.90;0.50;;;;;;;8.37;100.00;100236.69;5075732;28;20548;-70
2024/03/23 01:35:51;;;;;;;1.87;0.30;;;;;;;8.38;100.00;100238.31;5075705;28;20671;-70
2024/03/23 01:38:18;;;;;;;2.70;0.87;;;;;;;8.34;100.00;100219.19;5075755;28;20980;-70
2024/03/23 01:40:43;;;;;;;2.67;0.90;;;;;;;8.32;100.00;100226.75;5075622;28;20203;-70
2024/03/23 01:43:10;;;;;;;2.03;0.50;;;;;;;8.35;100.00;100224.28;5075699;28;20552;-70
2024/03/23 01:45:38;;;;;;;3.43;0.70;;;;;;;8.40;100.00;100225.31;5075933;28;20209;-70
2024/03/23 01:48:05;;;;;;;2.70;0.63;;;;;;;8.40;100.00;100228.81;5075514;28;21007;-70
2024/03/23 01:50:33;;;;;;;2.10;0.50;;;;;;;8.42;100.00;100225.84;5075329;28;20797;-70
2024/03/23 01:53:01;;;;;;;2.00;0.50;;;;;;;8.47;100.00;100223.06;5075067;28;20862;-70
2024/03/23 01:55:27;;;;;;;2.03;0.50;;;;;;;8.45;100.00;100219.84;5075073;28;20599;-70
2024/03/23 01:57:54;;;;;;;3.27;0.80;;;;;;;8.37;100.00;100210.53;5075155;28;20512;-70
2024/03/23 02:00:19;;;;;;;2.00;0.40;;;;;;;8.32;100.00;100211.41;5075333;28;20530;-70
2024/03/23 02:02:48;;;;;;;1.90;0.40;;;;;;;8.31;100.00;100207.06;5074953;28;20548;-69
2024/03/23 02:05:14;;;;;;;2.53;0.60;;;;;;;8.35;100.00;100210.78;5074855;28;20648;-69
2024/03/23 02:07:42;;;;;;;2.40;0.70;;;;;;;8.34;100.00;100214.59;5075374;28;20481;-70
2024/03/23 02:10:09;;;;;;;2.00;0.50;;;;;;;8.31;100.00;100209.75;5075148;28;20437;-70
2024/03/23 02:12:36;;;;;;;2.73;0.70;;;;;;;8.32;100.00;100208.69;5074875;28;20471;-70
2024/03/23 02:15:02;;;;;;;2.23;0.70;;;;;;;8.31;100.00;100201.66;5075074;28;20464;-70
2024/03/23 02:17:31;;;;;;;2.43;0.80;;;;;;;8.26;100.00;100201.75;5074805;28;20467;-70
2024/03/23 02:19:58;;;;;;;2.63;0.73;;;;;;;8.31;100.00;100198.19;5074897;28;20437;-70
2024/03/23 02:22:24;;;;;;;2.30;0.60;;;;;;;8.27;100.00;100192.56;5074445;28;20878;-70
2024/03/23 02:24:51;;;;;;;2.00;0.43;;;;;;;8.24;100.00;100181.59;5074958;28;20472;-71
2024/03/23 02:27:18;;;;;;;2.63;0.60;;;;;;;8.22;100.00;100183.75;5074327;28;20598;-69
2024/03/23 02:29:44;;;;;;;2.63;0.90;;;;;;;8.23;100.00;100174.56;5074755;28;21004;-69
2024/03/23 02:32:10;;;;;;;1.90;0.50;;;;;;;8.21;100.00;100164.06;5074592;28;20620;-69
2024/03/23 02:34:36;;;;;;;2.00;0.47;;;;;;;8.21;100.00;100164.06;5074635;28;20286;-69
2024/03/23 02:37:03;;;;;;;1.90;0.40;;;;;;;8.20;100.00;100165.19;5074698;28;20533;-69
2024/03/23 02:39:28;;;;;;;2.40;0.50;;;;;;;8.23;100.00;100166.47;5074414;28;20248;-69
2024/03/23 02:41:56;;;;;;;1.90;0.40;;;;;;;8.18;100.00;100167.34;5074456;28;20445;-69
2024/03/23 02:44:22;;;;;;;2.53;0.70;;;;;;;8.15;100.00;100162.56;5074111;28;20579;-69
2024/03/23 02:46:49;;;;;;;2.73;0.70;;;;;;;8.16;100.00;100158.78;5074505;28;20528;-69
2024/03/23 02:49:14;;;;;;;2.40;0.80;;;;;;;8.16;100.00;100166.06;5074322;28;20326;-69
2024/03/23 02:51:41;;;;;;;2.10;0.60;;;;;;;8.18;100.00;100166.56;5073998;28;20485;-69
2024/03/23 02:54:07;;;;;;;2.50;0.50;;;;;;;8.19;100.00;100158.19;5073896;28;20223;-69
2024/03/23 02:56:33;;;;;;;1.90;0.40;;;;;;;8.19;100.00;100152.78;5073815;28;20540;-69
2024/03/23 02:59:01;;;;;;;2.83;0.40;;;;;;;8.17;100.00;100165.75;5074217;28;20206;-69
2024/03/23 03:01:27;;;;;;;2.27;0.67;;;;;;;8.15;100.00;100162.56;5074155;28;20445;-69
2024/03/23 03:03:53;;;;;;;2.83;0.60;;;;;;;8.07;100.00;100152.44;5073453;28;20993;-70
2024/03/23 03:06:25;;;;;;;1.93;0.43;;;;;;;8.05;100.00;100141.13;5073970;28;20484;-69
2024/03/23 03:08:51;;;;;;;2.00;0.50;;;;;;;8.06;100.00;100142.75;5073638;28;20227;-69
2024/03/23 03:11:18;;;;;;;2.33;0.50;;;;;;;8.07;100.00;100139.75;5074379;28;20528;-69
2024/03/23 03:13:43;;;;;;;2.10;0.60;;;;;;;8.09;100.00;100142.94;5073922;28;20314;-69
2024/03/23 03:16:12;;;;;;;2.17;0.77;;;;;;;8.06;100.00;100138.16;5073942;28;20516;-69
2024/03/23 03:18:38;;;;;;;2.10;0.60;;;;;;;8.04;100.00;100134.16;5073880;28;20584;-69
2024/03/23 03:21:08;;;;;;;2.30;0.87;;;;;;;8.02;100.00;100136.34;5073922;28;20441;-69
2024/03/23 03:23:34;;;;;;;2.63;0.60;;;;;;;8.03;100.00;100127.97;5073966;28;20703;-69
2024/03/23 03:26:00;;;;;;;1.90;0.50;;;;;;;8.08;100.00;100124.38;5073496;28;20459;-69
2024/03/23 03:28:30;;;;;;;2.23;0.60;;;;;;;8.06;100.00;100107.69;5074048;28;20207;-70
2024/03/23 03:30:57;;;;;;;2.10;0.47;;;;;;;8.08;100.00;100105.50;5074034;28;20449;-69
2024/03/23 03:33:24;;;;;;;2.30;0.53;;;;;;;8.08;100.00;100114.38;5073680;28;20484;-68
2024/03/23 03:35:51;;;;;;;2.43;0.53;;;;;;;8.07;100.00;100117.38;5073763;28;20453;-71
2024/03/23 03:38:18;;;;;;;1.90;0.40;;;;;;;8.09;100.00;100113.28;5073885;28;20474;-70
2024/03/23 03:40:45;;;;;;;2.40;0.70;;;;;;;8.13;100.00;100110.00;5073933;28;20449;-69
2024/03/23 03:43:11;;;;;;;5.90;1.00;;;;;;;8.08;100.00;100110.88;5073258;28;21028;-69
2024/03/23 03:45:37;;;;;;;1.87;0.40;;;;;;;8.02;100.00;100115.56;5073719;28;20532;-69
2024/03/23 03:48:03;;;;;;;2.60;0.80;;;;;;;8.01;100.00;100105.06;5073620;28;20477;-69
2024/03/23 03:50:31;;;;;;;2.90;0.80;;;;;;;8.01;100.00;100105.06;5073580;28;20445;-69
2024/03/23 03:52:57;;;;;;;3.43;1.10;;;;;;;8.01;100.00;100097.81;5073410;28;20540;-69
2024/03/23 03:55:24;;;;;;;2.20;0.57;;;;;;;7.96;100.00;100092.47;5073590;28;20532;-69
2024/03/23 03:57:49;;;;;;;2.10;0.60;;;;;;;7.95;100.00;100096.25;5073279;28;20736;-69
2024/03/23 04:00:16;;;;;;;5.10;0.50;;;;;;;7.96;100.00;100088.97;5073209;28;20516;-69
2024/03/23 04:02:42;;;;;;;2.87;0.97;;;;;;;7.92;100.00;100083.38;5073103;28;20676;-69
2024/03/23 04:05:09;;;;;;;3.03;0.77;;;;;;;7.92;100.00;100082.56;5072926;28;20519;-69
2024/03/23 04:07:36;;;;;;;2.10;0.60;;;;;;;7.89;100.00;100083.19;5073427;28;20234;-69
2024/03/23 04:10:07;;;;;;;1.80;0.30;;;;;;;7.87;100.00;100098.84;5073464;28;20560;-70
2024/03/23 04:12:32;;;;;;;2.63;0.40;;;;;;;7.89;100.00;100088.56;5072896;28;20960;-70
2024/03/23 04:14:59;;;;;;;2.00;0.60;;;;;;;7.86;100.00;100084.56;5074968;28;20449;-70
2024/03/23 04:17:25;;;;;;;2.00;0.60;;;;;;;7.81;100.00;100085.44;5076789;28;20689;-69
2024/03/23 04:19:52;;;;;;;2.23;0.60;;;;;;;7.81;100.00;100084.66;5076975;28;20433;-69
2024/03/23 04:22:18;;;;;;;2.37;0.40;;;;;;;7.81;100.00;100081.94;5077328;28;20702;-69
2024/03/23 04:24:45;;;;;;;1.87;0.30;;;;;;;7.75;100.00;100077.75;5077038;28;20443;-70
2024/03/23 04:27:11;;;;;;;2.30;0.60;;;;;;;7.66;100.00;100074.91;5076895;28;20301;-70
2024/03/23 04:29:38;;;;;;;2.10;0.50;;;;;;;7.60;100.00;100068.00;5076988;28;20576;-70
2024/03/23 04:32:05;;;;;;;15.57;1.10;;;;;;;7.54;100.00;100064.59;5076898;28;20199;-69
2024/03/23 04:34:32;;;;;;;2.20;0.50;;;;;;;7.53;100.00;100059.50;5076953;28;20453;-69
2024/03/23 04:36:58;;;;;;;2.07;0.50;;;;;;;7.47;100.00;100060.66;5076810;28;20518;-69
2024/03/23 04:39:24;;;;;;;2.40;0.70;;;;;;;7.42;100.00;100066.13;5076704;28;20854;-69
2024/03/23 04:41:52;;;;;;;2.23;0.40;;;;;;;7.37;100.00;100066.19;5076450;28;20297;-69
2024/03/23 04:44:19;;;;;;;1.90;0.40;;;;;;;7.34;100.00;100062.19;5076345;28;20530;-69
2024/03/23 04:46:46;;;;;;;2.10;0.40;;;;;;;7.33;100.00;100047.91;5077232;28;20473;-70
2024/03/23 04:49:12;;;;;;;2.30;0.60;;;;;;;7.31;100.00;100052.81;5076614;28;20531;-69
2024/03/23 04:51:41;;;;;;;2.20;0.50;;;;;;;7.34;100.00;100057.59;5076989;28;20532;-69
2024/03/23 04:54:07;;;;;;;1.87;0.40;;;;;;;7.31;100.00;100057.41;5076409;28;20833;-68
2024/03/23 04:56:34;;;;;;;2.00;0.50;;;;;;;7.34;100.00;100046.81;5076223;28;20444;-68
2024/03/23 04:59:01;;;;;;;2.30;0.43;;;;;;;7.34;100.00;100033.34;5076500;28;20631;-68
2024/03/23 05:01:28;;;;;;;1.90;0.40;;;;;;;7.32;100.00;100037.44;5076290;28;20449;-68
2024/03/23 05:03:54;;;;;;;2.20;0.40;;;;;;;7.31;100.00;100035.84;5076302;28;20469;-68
2024/03/23 05:06:20;;;;;;;3.10;0.77;;;;;;;7.27;100.00;100034.84;5076280;28;20572;-68
2024/03/23 05:08:46;;;;;;;2.10;0.50;;;;;;;7.21;100.00;100033.28;5076287;28;20223;-68
2024/03/23 05:11:12;;;;;;;2.00;0.50;;;;;;;7.16;100.00;100026.09;5076100;28;20529;-68
2024/03/23 05:13:38;;;;;;;1.80;0.30;;;;;;;7.11;100.00;100020.78;5076231;28;20226;-68
2024/03/23 05:16:07;;;;;;;2.73;0.50;;;;;;;7.08;100.00;100024.03;5076047;28;20519;-68
2024/03/23 05:18:32;;;;;;;2.53;0.70;;;;;;;7.11;100.00;100025.38;5076219;28;20285;-66
2024/03/23 05:21:00;;;;;;;1.90;0.40;;;;;;;7.12;100.00;100026.97;5076116;28;20528;-67
2024/03/23 05:23:26;;;;;;;2.10;0.53;;;;;;;7.07;100.00;100030.53;5075820;28;20219;-67
2024/03/23 05:25:53;;;;;;;2.30;0.43;;;;;;;7.00;100.00;100030.91;5074888;28;20471;-67
2024/03/23 05:28:19;;;;;;;1.80;0.30;;;;;;;7.00;100.00;100019.34;5075679;28;20869;-68
2024/03/23 05:30:51;;;;;;;1.90;0.40;;;;;;;7.06;100.00;100026.25;5075550;28;21014;-67
2024/03/23 05:33:19;;;;;;;3.23;0.53;;;;;;;7.10;100.00;100019.19;5075933;28;20500;-67
2024/03/23 05:35:46;;;;;;;2.10;0.40;;;;;;;7.11;100.00;100012.69;5075827;28;20446;-67
2024/03/23 05:38:11;;;;;;;1.87;0.30;;;;;;;7.00;100.00;100006.66;5075506;28;20472;-67
2024/03/23 05:40:40;;;;;;;2.10;0.50;;;;;;;6.95;100.00;100005.91;5075797;28;20535;-67
2024/03/23 05:43:05;;;;;;;3.03;0.63;;;;;;;6.95;100.00;99997.84;5075594;28;20219;-68
2024/03/23 05:45:32;;;;;;;1.90;0.40;;;;;;;6.91;100.00;99994.97;5075606;28;20844;-69
2024/03/23 05:47:57;;;;;;;1.90;0.40;;;;;;;6.88;100.00;99990.16;5075306;28;20579;-67
2024/03/23 05:50:25;;;;;;;2.57;0.50;;;;;;;6.90;100.00;99987.94;5075448;28;20564;-68
2024/03/23 05:52:52;;;;;;;2.00;0.50;;;;;;;6.95;100.00;99979.81;5075062;28;20260;-68
2024/03/23 05:55:19;;;;;;;2.10;0.50;;;;;;;7.00;100.00;99998.59;5075329;28;20507;-68
2024/03/23 05:57:45;;;;;;;2.00;0.50;;;;;;;7.02;100.00;99984.81;5075289;28;20481;-68
2024/03/23 06:00:15;;;;;;;2.10;0.40;;;;;;;7.08;100.00;99972.88;5075807;28;20437;-68
2024/03/23 06:02:44;;;;;;;67.70;37.87;;;;;;;7.12;100.00;99965.81;5074991;28;20469;-67
2024/03/23 06:05:10;;;;;;;2.53;0.80;;;;;;;7.21;100.00;99961.34;5075030;28;20445;-67
2024/03/23 06:07:38;;;;;;;1.90;0.30;;;;;;;7.23;100.00;99955.69;5075135;28;20804;-68
2024/03/23 06:10:04;;;;;;;1.90;0.40;;;;;;;7.24;100.00;99960.78;5075279;28;20616;-68
2024/03/23 06:12:31;;;;;;;1.93;0.43;;;;;;;7.25;100.00;99951.59;5074883;28;20543;-68
2024/03/23 06:14:56;;;;;;;2.20;0.50;;;;;;;7.26;100.00;99950.53;5074912;28;20439;-68
2024/03/23 06:17:23;;;;;;;2.00;0.50;;;;;;;7.29;100.00;99952.63;5074450;28;20445;-68
2024/03/23 06:19:49;;;;;;;1.90;0.40;;;;;;;7.30;100.00;99948.03;5074802;28;20195;-68
2024/03/23 06:22:15;;;;;;;2.17;0.73;;;;;;;7.31;100.00;99946.94;5074710;28;20552;-68
2024/03/23 06:24:42;;;;;;;4.13;0.50;;;;;;;7.32;100.00;99946.66;5074808;28;20290;-68
2024/03/23 06:27:09;;;;;;;2.70;0.67;;;;;;;7.32;100.00;99946.66;5074302;28;20504;-68
2024/03/23 06:29:36;;;;;;;2.20;0.40;;;;;;;7.37;100.00;99939.56;5074272;28;20564;-68
2024/03/23 06:32:03;;;;;;;4.47;2.83;;;;;;;7.37;100.00;99947.66;5074347;28;20453;-68
2024/03/23 06:34:29;;;;;;;430.67;34.67;;;;;;;7.44;100.00;99937.31;5074292;28;20528;-68
2024/03/23 06:36:55;;;;;;;1.90;0.40;;;;;;;7.44;100.00;99943.50;5074419;28;20528;-68
2024/03/23 06:39:21;;;;;;;4.67;0.73;;;;;;;7.38;100.00;99939.28;5074429;28;20556;-68
2024/03/23 06:41:54;;;;;;;2.90;0.80;;;;;;;7.43;100.00;99933.00;5074127;28;20537;-69
2024/03/23 06:44:20;;;;;;;2.10;0.40;;;;;;;7.45;100.00;99922.75;5074465;28;20195;-68
2024/03/23 06:46:48;;;;;;;2.10;0.50;;;;;;;7.38;100.00;99933.88;5074311;28;20445;-68
2024/03/23 06:49:15;;;;;;;2.00;0.40;;;;;;;7.36;100.00;99925.31;5074243;28;20565;-68
2024/03/23 06:51:41;;;;;;;2.83;0.60;;;;;;;7.33;100.00;99926.69;5073862;28;20900;-68
2024/03/23 06:54:08;;;;;;;1.90;0.40;;;;;;;7.24;100.00;99928.47;5074143;28;20465;-68
2024/03/23 06:56:33;;;;;;;112.97;8.47;;;;;;;7.25;100.00;99921.19;5074211;28;20527;-68
2024/03/23 06:59:02;;;;;;;1999.90;999.90;;;;;;;7.25;100.00;99923.88;5074220;28;20545;-68
2024/03/23 07:01:28;;;;;;;1999.90;999.90;;;;;;;7.29;100.00;99906.03;5074417;28;20305;-68
2024/03/23 07:03:55;;;;;;;1.90;0.37;;;;;;;7.31;100.00;99907.34;5073957;28;20492;-68
2024/03/23 07:06:20;;;;;;;1999.90;999.90;;;;;;;7.36;100.00;99908.34;5073970;28;20532;-69
2024/03/23 07:08:47;;;;;;;1999.90;999.90;;;;;;;7.43;100.00;99904.16;5073679;28;20567;-69
2024/03/23 07:11:18;;;;;;;1999.90;999.90;;;;;;;7.47;100.00;99910.56;5073772;28;20298;-68
2024/03/23 07:13:45;;;;;;;1999.90;999.90;;;;;;;7.53;100.00;99901.31;5073459;28;21015;-68
2024/03/23 07:16:13;;;;;;;14.80;0.70;;;;;;;7.57;100.00;99914.97;5073896;28;20522;-68
2024/03/23 07:18:39;;;;;;;6.90;0.53;;;;;;;7.61;100.00;99915.97;5073360;28;20437;-68
2024/03/23 07:21:06;;;;;;;116.57;8.10;;;;;;;7.55;100.00;99909.06;5073746;28;20469;-68
2024/03/23 07:23:33;;;;;;;2.40;0.80;;;;;;;7.62;100.00;99903.31;5073687;28;20477;-68
2024/03/23 07:26:00;;;;;;;2.20;0.40;;;;;;;7.67;100.00;99897.81;5073312;28;20451;-69
2024/03/23 07:28:27;;;;;;;2.20;0.53;;;;;;;7.67;100.00;99906.69;5073493;28;20958;-68
2024/03/23 07:31:05;;;;;;;2.20;0.43;;;;;;;7.64;100.00;99899.19;5073575;28;20461;-68
2024/03/23 07:33:34;;;;;;;2.10;0.40;;;;;;;7.62;100.00;99904.09;5073358;28;20497;-67
2024/03/23 07:36:00;;;;;;;2.70;0.83;;;;;;;7.54;100.00;99897.50;5073591;28;20477;-67
2024/03/23 07:38:28;;;;;;;2.10;0.50;;;;;;;7.49;100.00;99907.59;5073657;28;20476;-68
2024/03/23 07:41:03;;;;;;;2.13;0.57;;;;;;;7.40;100.00;99903.97;5073640;28;20468;-68
2024/03/23 07:43:29;;;;;;;2.10;0.40;;;;;;;7.31;100.00;99901.97;5073447;28;20456;-68
2024/03/23 07:45:55;;;;;;;3.70;0.83;;;;;;;7.18;100.00;99900.03;5073354;28;20467;-68
2024/03/23 07:48:23;;;;;;;2.10;0.50;;;;;;;6.97;100.00;99901.44;5073400;28;20451;-68
2024/03/23 07:50:58;;;;;;;2.17;0.50;;;;;;;6.65;100.00;99904.91;5076480;28;20246;-70
2024/03/23 07:53:24;;;;;;;2.50;0.57;;;;;;;6.60;100.00;99900.41;5077890;28;20461;-70
2024/03/23 07:55:54;;;;;;;2.73;0.83;;;;;;;6.48;100.00;99905.41;5077980;28;20957;-70
2024/03/23 07:58:21;;;;;;;2.00;0.30;;;;;;;6.47;100.00;99909.19;5077661;28;20437;-70
2024/03/23 08:00:46;;;;;;;2.00;0.30;;;;;;;6.44;100.00;99905.19;5077148;28;21000;-69
2024/03/23 08:03:13;;;;;;;4.20;0.70;;;;;;;6.40;100.00;99909.53;5077308;28;20560;-70
2024/03/23 08:05:38;;;;;;;2.83;0.50;;;;;;;6.41;100.00;99896.88;5078199;28;20226;-70
2024/03/23 08:08:07;;;;;;;2.30;0.60;;;;;;;6.39;100.00;99901.78;5077423;28;20481;-70
2024/03/23 08:10:32;;;;;;;2.00;0.30;;;;;;;6.37;100.00;99887.78;5077821;28;20227;-70
2024/03/23 08:12:59;;;;;;;2.00;0.40;;;;;;;6.40;100.00;99897.97;5077865;28;20880;-70
2024/03/23 08:15:25;;;;;;;2.10;0.50;;;;;;;6.32;100.00;99897.53;5077795;28;20290;-70
2024/03/23 08:17:51;;;;;;;2.00;0.30;;;;;;;6.31;100.00;99890.56;5077893;28;20480;-69
2024/03/23 08:20:17;;;;;;;2.10;0.50;;;;;;;6.29;100.00;99895.44;5077577;28;20701;-69
2024/03/23 08:22:43;;;;;;;2.10;0.50;;;;;;;6.12;100.00;99891.63;5077177;28;20521;-69
2024/03/23 08:25:10;;;;;;;2.00;0.30;;;;;;;6.01;100.00;99890.94;5077352;28;20203;-70
2024/03/23 08:27:37;;;;;;;2.00;0.33;;;;;;;5.94;100.00;99885.13;5076723;28;20485;-69
2024/03/23 08:30:03;;;;;;;2.00;0.30;;;;;;;5.88;100.00;99899.69;5076637;28;21012;-68
2024/03/23 08:32:30;;;;;;;2.03;0.40;;;;;;;5.90;100.00;99892.94;5076903;28;21054;-68
2024/03/23 08:34:56;;;;;;;2.00;0.40;;;;;;;5.92;100.00;99892.66;5076603;28;20940;-69
2024/03/23 08:37:24;;;;;;;2.50;0.57;;;;;;;5.84;100.00;99886.00;5076702;28;20480;-69
2024/03/23 08:39:51;;;;;;;2.00;0.30;;;;;;;5.79;100.00;99888.75;5076886;28;20198;-70
2024/03/23 08:42:19;;;;;;;2.50;0.60;;;;;;;5.68;100.00;99885.38;5077218;28;20828;-74
2024/03/23 08:44:49;;;;;;;2.40;0.60;;;;;;;5.61;100.00;99876.84;5076967;28;20461;-71
2024/03/23 08:47:16;;;;;;;2.00;0.33;;;;;;;5.57;100.00;99886.56;5077158;28;21012;-74
2024/03/23 08:49:41;;;;;;;2.00;0.40;;;;;;;5.52;100.00;99883.94;5076417;28;20560;-72
2024/03/23 08:52:08;;;;;;;2.00;0.40;;;;;;;5.54;100.00;99882.59;5076514;28;20520;-72
2024/03/23 08:54:34;;;;;;;2.50;0.60;;;;;;;5.47;100.00;99889.38;5076511;28;20762;-72
2024/03/23 08:57:01;;;;;;;1.97;0.30;;;;;;;5.51;100.00;99890.41;5076589;28;20527;-71
2024/03/23 08:59:27;;;;;;;2.00;0.40;;;;;;;5.53;100.00;99886.38;5076371;28;20461;-72
2024/03/23 09:01:54;;;;;;;2.00;0.30;;;;;;;5.58;100.00;99888.19;5076201;28;20443;-72
2024/03/23 09:04:21;;;;;;;2.10;0.40;;;;;;;5.59;100.00;99879.03;5076567;28;20433;-72
2024/03/23 09:06:48;;;;;;;2.00;0.30;;;;;;;5.66;100.00;99884.06;5076351;28;20452;-72
2024/03/23 09:09:13;;;;;;;3.37;0.67;;;;;;;5.66;100.00;99884.84;5075936;28;20485;-72
2024/03/23 09:11:40;;;;;;;2.10;0.40;;;;;;;5.60;100.00;99875.25;5076304;28;20528;-72
2024/03/23 09:14:05;;;;;;;2.00;0.30;;;;;;;5.68;100.00;99882.72;5076365;28;20227;-72
2024/03/23 09:16:33;;;;;;;2.00;0.30;;;;;;;5.66;100.00;99890.22;5076354;28;20532;-72
2024/03/23 09:18:59;;;;;;;2.10;0.40;;;;;;;5.55;100.00;99891.44;5076101;28;20290;-72
2024/03/23 09:21:26;;;;;;;2.00;0.40;;;;;;;5.59;100.00;99891.69;5076172;28;20540;-72
2024/03/23 09:23:51;;;;;;;3.70;0.80;;;;;;;5.66;100.00;99895.59;5076011;28;20317;-72
2024/03/23 09:26:18;;;;;;;2.10;0.63;;;;;;;5.72;100.00;99894.47;5075669;28;20901;-72
2024/03/23 09:28:44;;;;;;;2.00;0.30;;;;;;;5.82;100.00;99894.34;5076050;28;20287;-72
2024/03/23 09:31:14;;;;;;;2.00;0.40;;;;;;;5.75;100.00;99893.91;5075446;28;20925;-72
2024/03/23 09:33:41;;;;;;;2.00;0.30;;;;;;;5.68;100.00;99906.88;5076119;28;20310;-72
2024/03/23 09:36:08;;;;;;;1.97;0.30;;;;;;;5.69;100.00;99911.16;5075883;28;20444;-72
2024/03/23 09:38:34;;;;;;;2.67;1.07;;;;;;;5.74;100.00;99913.78;5075805;28;20508;-72
2024/03/23 09:41:01;;;;;;;1.97;0.30;;;;;;;5.84;100.00;99912.88;5075690;28;20627;-72
2024/03/23 09:43:26;;;;;;;2.00;0.40;;;;;;;5.85;100.00;99914.50;5075560;28;20246;-73
2024/03/23 09:45:54;;;;;;;2.00;0.40;;;;;;;5.82;100.00;99905.09;5075918;28;20460;-72
2024/03/23 09:48:20;;;;;;;2.37;0.60;;;;;;;5.81;100.00;99905.41;5075911;28;20213;-73
2024/03/23 09:50:48;;;;;;;2.27;0.53;;;;;;;5.75;100.00;99907.31;5075645;28;20847;-73
2024/03/23 09:53:14;;;;;;;2.20;0.50;;;;;;;5.73;100.00;99916.78;5075343;28;20589;-73
2024/03/23 09:55:43;;;;;;;2.40;0.40;;;;;;;5.75;100.00;99919.97;5075965;28;20543;-72
2024/03/23 09:58:12;;;;;;;2.30;0.53;;;;;;;5.76;100.00;99922.38;5075403;28;20502;-72
2024/03/23 10:00:39;;;;;;;2.87;0.60;;;;;;;5.83;100.00;99922.03;5075302;28;20441;-72
2024/03/23 10:03:06;;;;;;;2.00;0.43;;;;;;;5.84;100.00;99934.38;5075035;28;20973;-72
2024/03/23 10:05:34;;;;;;;2.40;0.50;;;;;;;5.91;100.00;99923.31;5075246;28;20453;-72
2024/03/23 10:08:18;;;;;;;2.27;0.63;;;;;;;6.01;100.00;99923.19;5075004;28;20896;-72
2024/03/23 10:10:45;;;;;;;11.83;2.03;;;;;;;6.04;100.00;99933.38;5075091;28;20894;-72
2024/03/23 10:13:23;;;;;;;2.27;0.50;;;;;;;6.04;100.00;99938.78;5074370;28;20546;-72
2024/03/23 10:15:56;;;;;;;1.90;0.30;;;;;;;6.10;100.00;99939.50;5075088;28;20516;-72
2024/03/23 10:18:23;;;;;;;2.37;0.47;;;;;;;6.07;100.00;99946.28;5074854;28;20432;-72
2024/03/23 10:20:52;;;;;;;2.00;0.30;;;;;;;6.04;100.00;99939.56;5075198;28;20437;-72
2024/03/23 10:23:19;;;;;;;2.30;0.50;;;;;;;6.09;100.00;99951.34;5074792;28;20540;-72
2024/03/23 10:25:46;;;;;;;2.00;0.40;;;;;;;6.12;100.00;99956.16;5075476;28;20799;-71
2024/03/23 10:28:12;;;;;;;2.00;0.40;;;;;;;6.13;100.00;99965.81;5074513;28;20453;-72
2024/03/23 10:30:39;;;;;;;3.60;0.87;;;;;;;6.08;100.00;99950.56;5074111;28;20485;-72
2024/03/23 10:33:08;;;;;;;1.97;0.30;;;;;;;6.17;100.00;99956.09;5074779;28;20310;-71
2024/03/23 10:35:34;;;;;;;2.00;0.43;;;;;;;6.22;100.00;99958.72;5074421;28;20863;-71
2024/03/23 10:38:01;;;;;;;2.23;0.60;;;;;;;6.16;100.00;99960.69;5074719;28;20445;-71
2024/03/23 10:40:30;;;;;;;2.40;0.57;;;;;;;6.14;100.00;99952.09;5074544;28;20880;-71
2024/03/23 10:42:59;;;;;;;3.67;0.80;;;;;;;6.14;100.00;99948.59;5074334;28;20519;-71
2024/03/23 10:45:25;;;;;;;2.60;0.43;;;;;;;6.26;100.00;99952.47;5074291;28;20429;-71
2024/03/23 10:47:52;;;;;;;2.70;0.53;;;;;;;6.38;100.00;99951.28;5074055;28;20444;-71
2024/03/23 10:50:18;;;;;;;4.07;0.57;;;;;;;6.35;100.00;99951.84;5074462;28;20568;-71
2024/03/23 10:52:48;;;;;;;5.33;0.50;;;;;;;6.31;100.00;99967.75;5074319;28;20524;-70
2024/03/23 10:55:17;;;;;;;2.00;0.40;;;;;;;6.39;100.00;99969.81;5074197;28;20286;-72
2024/03/23 10:57:49;;;;;;;2.10;0.50;;;;;;;6.46;100.00;99967.56;5075045;28;20469;-71
2024/03/23 11:00:16;;;;;;;2.50;0.40;;;;;;;6.47;100.00;99963.00;5074998;28;20471;-71
2024/03/23 11:02:42;;;;;;;2.23;0.40;;;;;;;6.44;100.00;99958.19;5074877;28;20457;-70
2024/03/23 11:05:29;;;;;;;2.37;0.50;;;;;;;6.39;100.00;99958.25;5074698;28;20524;-70
2024/03/23 11:07:56;;;;;;;2.30;0.60;;;;;;;6.48;100.00;99960.00;5074808;28;20425;-70
2024/03/23 11:10:26;;;;;;;2.00;0.40;;;;;;;6.59;100.00;99963.34;5074379;28;20517;-70
2024/03/23 11:12:54;;;;;;;2.20;0.40;;;;;;;6.74;100.00;99962.34;5074663;28;20784;-70
2024/03/23 11:15:20;;;;;;;2.73;0.60;;;;;;;6.78;100.00;99963.38;5074296;28;21012;-70
2024/03/23 11:18:05;;;;;;;2.07;0.37;;;;;;;6.74;100.00;99971.22;5074471;28;20532;-70
2024/03/23 11:20:32;;;;;;;2.00;0.30;;;;;;;6.79;100.00;99963.09;5074578;28;20278;-70
2024/03/23 11:22:59;;;;;;;2.20;0.60;;;;;;;6.85;100.00;99957.63;5074500;28;20583;-70
2024/03/23 11:25:26;;;;;;;2.20;0.53;;;;;;;6.86;100.00;99961.91;5073602;28;20477;-70
2024/03/23 11:27:56;;;;;;;2.07;0.43;;;;;;;7.02;100.00;99964.09;5074871;28;20473;-70
2024/03/23 11:30:23;;;;;;;2.10;0.40;;;;;;;7.10;100.00;99965.31;5075001;28;20469;-70